Terminal Aerodrome Forecast
Issued by NWS

Home | Current Version | Previous Version | Text Only | Print | Product List | Glossary On
Versions: 1 2 3 4 5 6 7 8 9 10 11 12 13
000
FTUS44 KLIX 161255 AAA
TAFMSY
TAF AMD
KMSY 161255Z 1613/1718 00000KT 3SM MIFG BR FEW100 SCT250
      TEMPO 1613/1615 1SM BR BKN001
     FM161500 36012G22KT P6SM BKN080
     FM161700 36012G22KT P6SM VCSH BKN020 OVC150 PROB30 1622/1702
      4SM -FZRASNPL OVC003
     FM170200 36017G27KT P6SM BKN015 OVC150
     FM171000 36017G27KT P6SM SCT200=

USA.gov is the U.S. government's official web portal to all federal, state and local government web resources and services.